Terminal Aerodrome Forecast
Issued by NWS Quad Cities IA IL

Home | Current Version | Previous Version | Text Only | Print | Product List | Glossary On
Versions: 1 2 3 4 5 6 7 8 9 10 11 12 13 14 15 16 17 18 19 20 21 22
363
FTUS43 KDVN 110538
TAFDBQ
TAF
KDBQ 110538Z 1106/1206 14010KT 2SM -SN BR OVC025
      TEMPO 1106/1109 1/2SM SN FG OVC007
     FM111200 15012KT 3SM -SN BR OVC015
     FM111500 17010KT 4SM BR OVC008
     FM111800 19008KT 3SM BR VCSH OVC008
     FM112200 25007KT 5SM BR OVC010=

USA.gov is the U.S. government's official web portal to all federal, state and local government web resources and services.